Eleonora E — MEDD4 — position and weather

sailwx.info

Track history (hours):
 
Tides and Currents Weather Stations Pressure Air Temp Water Temp Dewpoint Dewpoint Depression Visibility Wind Speed Wind Dir Waves Ship Positions

Eleonora E

Last reported at 2016-Jun-25 16:16 UTC. Time now 2016-Jun-25 19:46 UTC.
Position N 41°06' E 001°15'.

Length 41 m; draft 5.2 m.

Type: Sailing vessel. MMSI: 235008680.

Date/timePositionNaut miles runAvg speedWind from/ knotsBaromVisibWave heightAir tempDewpointWater temp
2016-Jun-25 16:16N 41°06' E 001°15'0 0.0
2016-Jun-25 15:27N 41°06' E 001°15'0 0.0
2016-Jun-25 13:31N 41°06' E 001°15'0 0.0
2016-Jun-25 12:31N 41°06' E 001°15'0 0.0
2016-Jun-25 04:14N 41°06' E 001°15'0 0.0
2016-Jun-25 03:26N 41°06' E 001°15'0 0.0
2016-Jun-25 01:23N 41°06' E 001°15'19 1.4
2016-Jun-24 12:04N 40°50' E 001°27'510.2
2016-Jun-24 11:33N 40°45' E 001°31'10 9.9
2016-Jun-24 10:33N 40°37' E 001°38'10 9.9
2016-Jun-24 09:33N 40°28' E 001°45'1010.1
2016-Jun-24 08:33N 40°20' E 001°52'1010.2
2016-Jun-24 07:33N 40°11' E 001°58'50 9.7
2016-Jun-24 02:22N 39°27' E 002°30'8 9.6
2016-Jun-24 01:33N 39°32' E 002°38'2 1.6
2016-Jun-24 00:33N 39°34' E 002°39'0 0.0
2016-Jun-23 23:33N 39°34' E 002°39'0 0.0
2016-Jun-23 22:33N 39°34' E 002°39'0 0.0
2016-Jun-23 21:33N 39°34' E 002°39'0 0.0
2016-Jun-23 20:33N 39°34' E 002°39'0 0.0
2016-Jun-23 19:33N 39°34' E 002°39'0 0.0
2016-Jun-23 18:33N 39°34' E 002°39'0 0.0
2016-Jun-23 17:33N 39°34' E 002°39'0 0.0
2016-Jun-23 16:33N 39°34' E 002°39'0 0.0
2016-Jun-23 15:33N 39°34' E 002°39'0 0.0
2016-Jun-23 14:33N 39°34' E 002°39'0 0.0
2016-Jun-23 13:33N 39°34' E 002°39'0 0.0
2016-Jun-23 12:33N 39°34' E 002°39'0 0.0
2016-Jun-23 11:33N 39°34' E 002°39'0 0.0
2016-Jun-23 10:33N 39°34' E 002°39'0 0.0
2016-Jun-23 09:34N 39°34' E 002°39'0 0.0
2016-Jun-23 08:33N 39°34' E 002°39'0 0.0
2016-Jun-23 07:33N 39°34' E 002°39'0 0.0
2016-Jun-23 05:33N 39°34' E 002°39'0 0.0
2016-Jun-23 04:33N 39°34' E 002°39'0 0.0
2016-Jun-23 03:34N 39°34' E 002°39'0 0.0
2016-Jun-23 02:33N 39°34' E 002°39'0 0.0
2016-Jun-23 01:33N 39°34' E 002°39'0 0.0
2016-Jun-23 00:33N 39°34' E 002°39'0 0.0
2016-Jun-22 23:33N 39°34' E 002°39'0 0.0
2016-Jun-22 22:33N 39°34' E 002°39'0 0.0
2016-Jun-22 21:33N 39°34' E 002°39'0 0.0
2016-Jun-22 20:33N 39°34' E 002°39'0 0.0
2016-Jun-22 19:33N 39°34' E 002°39'0 0.0
2016-Jun-22 18:33N 39°34' E 002°39'0 0.0
2016-Jun-22 17:33N 39°34' E 002°39'0 0.0
2016-Jun-22 16:33N 39°34' E 002°39'0 0.0
2016-Jun-22 15:33N 39°34' E 002°39'0 0.0
2016-Jun-22 14:33N 39°34' E 002°39'1 1.4
2016-Jun-22 13:33N 39°32' E 002°39'6 6.2
2016-Jun-22 12:33N 39°29' E 002°33'5 5.2
2016-Jun-22 11:33N 39°31' E 002°38'2 2.4
2016-Jun-22 10:33N 39°31' E 002°41'3 2.4
2016-Jun-22 09:26N 39°33' E 002°39'1 0.8
2016-Jun-22 08:33N 39°34' E 002°39'0 0.0
2016-Jun-22 07:33N 39°34' E 002°39'0 0.0
2016-Jun-22 06:27N 39°34' E 002°39'0 0.0
2016-Jun-22 05:33N 39°34' E 002°39'0 0.0
2016-Jun-22 04:33N 39°34' E 002°39'0 0.0
2016-Jun-22 03:33N 39°34' E 002°39'0 0.0
2016-Jun-22 02:33N 39°34' E 002°39'0 0.0
2016-Jun-22 01:33N 39°34' E 002°39'0 0.0
2016-Jun-22 00:33N 39°34' E 002°39'0 0.0
2016-Jun-21 23:33N 39°34' E 002°39'0 0.0
2016-Jun-21 22:33N 39°34' E 002°39'0 0.0
2016-Jun-21 21:33N 39°34' E 002°39'0 0.0
2016-Jun-21 20:33N 39°34' E 002°39'0 0.0
2016-Jun-21 19:33N 39°34' E 002°39'0 0.0
2016-Jun-21 18:33N 39°34' E 002°39'0 0.0
2016-Jun-21 17:33N 39°34' E 002°39'0 0.0
2016-Jun-21 16:33N 39°34' E 002°39'1 1.5
2016-Jun-21 15:33N 39°32' E 002°38'5 5.0
2016-Jun-21 14:33N 39°27' E 002°38'2 1.8
2016-Jun-21 13:33N 39°27' E 002°35'2 2.5
2016-Jun-21 12:33N 39°29' E 002°38'3 3.5
2016-Jun-21 11:33N 39°32' E 002°38'1 1.4
2016-Jun-21 10:33N 39°34' E 002°39'0 0.0
2016-Jun-21 09:33N 39°34' E 002°39'0 0.0
2016-Jun-21 08:33N 39°34' E 002°39'0 0.0
2016-Jun-21 07:33N 39°34' E 002°39'0 0.0
2016-Jun-21 06:33N 39°34' E 002°39'0 0.0
2016-Jun-21 04:33N 39°34' E 002°39'0 0.0
2016-Jun-21 03:33N 39°34' E 002°39'0 0.0
2016-Jun-21 02:33N 39°34' E 002°39'0 0.0
2016-Jun-21 01:33N 39°34' E 002°39'0 0.0
2016-Jun-21 00:33N 39°34' E 002°39'0 0.0
2016-Jun-20 23:33N 39°34' E 002°39'0 0.0
2016-Jun-20 22:33N 39°34' E 002°39'0 0.0
2016-Jun-20 21:33N 39°34' E 002°39'0 0.0
2016-Jun-20 20:33N 39°34' E 002°39'0 0.0
2016-Jun-20 19:33N 39°34' E 002°39'0 0.0
2016-Jun-20 18:33N 39°34' E 002°39'3 3.5
2016-Jun-20 17:33N 39°31' E 002°36'8 8.4
2016-Jun-20 16:33N 39°29' E 002°26'29 9.8
2016-Jun-20 13:33N 39°53' E 002°04'11 9.7
2016-Jun-20 12:28N 40°03' E 001°58'9 9.6
2016-Jun-20 11:33N 40°10' E 001°54'10 9.7
2016-Jun-20 10:29N 40°19' E 001°46'53 3.7
2016-Jun-19 20:11N 41°06' E 001°15'0 0.0
2016-Jun-17 18:22N 41°06' E 001°15'0 0.0
2016-Jun-17 17:33N 41°06' E 001°15'  
Track history (hours):
 
Tides and Currents Weather Stations Pressure Air Temp Water Temp Dewpoint Dewpoint Depression Visibility Wind Speed Wind Dir Waves Ship Positions

Eleonora E

Last reported at 2016-Jun-25 16:16 UTC. Time now 2016-Jun-25 19:46 UTC.
Position N 41°06' E 001°15'.

Length 41 m; draft 5.2 m.

Type: Sailing vessel. MMSI: 235008680.

Date/timePositionNaut miles runAvg speedWind from/ knotsBaromVisibWave heightAir tempDewpointWater temp
2016-Jun-25 16:16N 41°06' E 001°15'0 0.0
2016-Jun-25 15:27N 41°06' E 001°15'0 0.0
2016-Jun-25 13:31N 41°06' E 001°15'0 0.0
2016-Jun-25 12:31N 41°06' E 001°15'0 0.0
2016-Jun-25 04:14N 41°06' E 001°15'0 0.0
2016-Jun-25 03:26N 41°06' E 001°15'0 0.0
2016-Jun-25 01:23N 41°06' E 001°15'19 1.4
2016-Jun-24 12:04N 40°50' E 001°27'510.2
2016-Jun-24 11:33N 40°45' E 001°31'10 9.9
2016-Jun-24 10:33N 40°37' E 001°38'10 9.9
2016-Jun-24 09:33N 40°28' E 001°45'1010.1
2016-Jun-24 08:33N 40°20' E 001°52'1010.2
2016-Jun-24 07:33N 40°11' E 001°58'50 9.7
2016-Jun-24 02:22N 39°27' E 002°30'8 9.6
2016-Jun-24 01:33N 39°32' E 002°38'2 1.6
2016-Jun-24 00:33N 39°34' E 002°39'0 0.0
2016-Jun-23 23:33N 39°34' E 002°39'0 0.0
2016-Jun-23 22:33N 39°34' E 002°39'0 0.0
2016-Jun-23 21:33N 39°34' E 002°39'0 0.0
2016-Jun-23 20:33N 39°34' E 002°39'0 0.0
2016-Jun-23 19:33N 39°34' E 002°39'0 0.0
2016-Jun-23 18:33N 39°34' E 002°39'0 0.0
2016-Jun-23 17:33N 39°34' E 002°39'0 0.0
2016-Jun-23 16:33N 39°34' E 002°39'0 0.0
2016-Jun-23 15:33N 39°34' E 002°39'0 0.0
2016-Jun-23 14:33N 39°34' E 002°39'0 0.0
2016-Jun-23 13:33N 39°34' E 002°39'0 0.0
2016-Jun-23 12:33N 39°34' E 002°39'0 0.0
2016-Jun-23 11:33N 39°34' E 002°39'0 0.0
2016-Jun-23 10:33N 39°34' E 002°39'0 0.0
2016-Jun-23 09:34N 39°34' E 002°39'0 0.0
2016-Jun-23 08:33N 39°34' E 002°39'0 0.0
2016-Jun-23 07:33N 39°34' E 002°39'0 0.0
2016-Jun-23 05:33N 39°34' E 002°39'0 0.0
2016-Jun-23 04:33N 39°34' E 002°39'0 0.0
2016-Jun-23 03:34N 39°34' E 002°39'0 0.0
2016-Jun-23 02:33N 39°34' E 002°39'0 0.0
2016-Jun-23 01:33N 39°34' E 002°39'0 0.0
2016-Jun-23 00:33N 39°34' E 002°39'0 0.0
2016-Jun-22 23:33N 39°34' E 002°39'0 0.0
2016-Jun-22 22:33N 39°34' E 002°39'0 0.0
2016-Jun-22 21:33N 39°34' E 002°39'0 0.0
2016-Jun-22 20:33N 39°34' E 002°39'0 0.0
2016-Jun-22 19:33N 39°34' E 002°39'0 0.0
2016-Jun-22 18:33N 39°34' E 002°39'0 0.0
2016-Jun-22 17:33N 39°34' E 002°39'0 0.0
2016-Jun-22 16:33N 39°34' E 002°39'0 0.0
2016-Jun-22 15:33N 39°34' E 002°39'0 0.0
2016-Jun-22 14:33N 39°34' E 002°39'1 1.4
2016-Jun-22 13:33N 39°32' E 002°39'6 6.2
2016-Jun-22 12:33N 39°29' E 002°33'5 5.2
2016-Jun-22 11:33N 39°31' E 002°38'2 2.4
2016-Jun-22 10:33N 39°31' E 002°41'3 2.4
2016-Jun-22 09:26N 39°33' E 002°39'1 0.8
2016-Jun-22 08:33N 39°34' E 002°39'0 0.0
2016-Jun-22 07:33N 39°34' E 002°39'0 0.0
2016-Jun-22 06:27N 39°34' E 002°39'0 0.0
2016-Jun-22 05:33N 39°34' E 002°39'0 0.0
2016-Jun-22 04:33N 39°34' E 002°39'0 0.0
2016-Jun-22 03:33N 39°34' E 002°39'0 0.0
2016-Jun-22 02:33N 39°34' E 002°39'0 0.0
2016-Jun-22 01:33N 39°34' E 002°39'0 0.0
2016-Jun-22 00:33N 39°34' E 002°39'0 0.0
2016-Jun-21 23:33N 39°34' E 002°39'0 0.0
2016-Jun-21 22:33N 39°34' E 002°39'0 0.0
2016-Jun-21 21:33N 39°34' E 002°39'0 0.0
2016-Jun-21 20:33N 39°34' E 002°39'0 0.0
2016-Jun-21 19:33N 39°34' E 002°39'0 0.0
2016-Jun-21 18:33N 39°34' E 002°39'0 0.0
2016-Jun-21 17:33N 39°34' E 002°39'0 0.0
2016-Jun-21 16:33N 39°34' E 002°39'1 1.5
2016-Jun-21 15:33N 39°32' E 002°38'5 5.0
2016-Jun-21 14:33N 39°27' E 002°38'2 1.8
2016-Jun-21 13:33N 39°27' E 002°35'2 2.5
2016-Jun-21 12:33N 39°29' E 002°38'3 3.5
2016-Jun-21 11:33N 39°32' E 002°38'1 1.4
2016-Jun-21 10:33N 39°34' E 002°39'0 0.0
2016-Jun-21 09:33N 39°34' E 002°39'0 0.0
2016-Jun-21 08:33N 39°34' E 002°39'0 0.0
2016-Jun-21 07:33N 39°34' E 002°39'0 0.0
2016-Jun-21 06:33N 39°34' E 002°39'0 0.0
2016-Jun-21 04:33N 39°34' E 002°39'0 0.0
2016-Jun-21 03:33N 39°34' E 002°39'0 0.0
2016-Jun-21 02:33N 39°34' E 002°39'0 0.0
2016-Jun-21 01:33N 39°34' E 002°39'0 0.0
2016-Jun-21 00:33N 39°34' E 002°39'0 0.0
2016-Jun-20 23:33N 39°34' E 002°39'0 0.0
2016-Jun-20 22:33N 39°34' E 002°39'0 0.0
2016-Jun-20 21:33N 39°34' E 002°39'0 0.0
2016-Jun-20 20:33N 39°34' E 002°39'0 0.0
2016-Jun-20 19:33N 39°34' E 002°39'0 0.0
2016-Jun-20 18:33N 39°34' E 002°39'3 3.5
2016-Jun-20 17:33N 39°31' E 002°36'8 8.4
2016-Jun-20 16:33N 39°29' E 002°26'29 9.8
2016-Jun-20 13:33N 39°53' E 002°04'11 9.7
2016-Jun-20 12:28N 40°03' E 001°58'9 9.6
2016-Jun-20 11:33N 40°10' E 001°54'10 9.7
2016-Jun-20 10:29N 40°19' E 001°46'53 3.7
2016-Jun-19 20:11N 41°06' E 001°15'0 0.0
2016-Jun-17 18:22N 41°06' E 001°15'0 0.0
2016-Jun-17 17:33N 41°06' E 001°15'  

Dump ship's entire track history